Time,TemperatureF,DewpointF,PressureIn,WindDirection,WindDirectionDegrees,WindSpeedMPH,WindSpeedGustMPH,Humidity,HourlyPrecipIn,Conditions,Clouds,dailyrainin,SoftwareType,DateUTC
2013-02-19 07:57:00,23.3,5.5,30.11,SW,216,0.0,0.0,46,0.00,,,0.00,Wunderground v.1.15,2013-02-19 12:57:00,
2013-02-19 07:58:00,23.4,5.6,30.11,SSW,213,0.0,0.0,46,0.00,,,0.00,Wunderground v.1.15,2013-02-19 12:58:00,
2013-02-19 08:00:00,23.6,4.8,30.11,SW,214,0.0,0.0,44,0.00,,,0.00,Wunderground v.1.15,2013-02-19 13:00:00,
2013-02-19 08:05:00,24.0,4.7,30.10,SW,217,0.0,2.0,43,0.00,,,0.00,Wunderground v.1.15,2013-02-19 13:05:00,
2013-02-19 08:10:00,24.0,5.2,30.11,SW,217,0.0,2.0,44,0.00,,,0.00,Wunderground v.1.15,2013-02-19 13:10:00,
2013-02-19 08:15:00,23.9,4.6,30.10,SW,217,0.0,2.0,43,0.00,,,0.00,Wunderground v.1.15,2013-02-19 13:15:00,
2013-02-19 08:21:00,24.1,5.3,30.10,SW,217,0.0,2.0,44,0.00,,,0.00,Wunderground v.1.15,2013-02-19 13:21:00,
2013-02-19 08:26:00,24.2,4.9,30.10,SW,216,0.0,2.0,43,0.00,,,0.00,Wunderground v.1.15,2013-02-19 13:26:00,
2013-02-19 08:32:00,24.3,5.0,30.09,SW,216,0.0,2.0,43,0.00,,,0.00,Wunderground v.1.15,2013-02-19 13:32:00,
2013-02-19 08:37:00,24.4,4.0,30.09,SW,216,0.0,2.0,41,0.00,,,0.00,Wunderground v.1.15,2013-02-19 13:37:00,
2013-02-19 08:42:00,24.6,4.2,30.08,SW,216,0.0,2.0,41,0.00,,,0.00,Wunderground v.1.15,2013-02-19 13:42:00,
2013-02-19 08:47:00,24.8,4.4,30.08,SW,216,0.0,2.0,41,0.00,,,0.00,Wunderground v.1.15,2013-02-19 13:47:00,
2013-02-19 08:52:00,25.3,4.3,30.09,SW,216,0.0,2.0,40,0.00,,,0.00,Wunderground v.1.15,2013-02-19 13:52:00,
2013-02-19 08:57:00,26.1,4.5,30.08,West,263,0.0,2.0,39,0.00,,,0.00,Wunderground v.1.15,2013-02-19 13:57:00,
2013-02-19 09:03:00,26.8,4.5,30.08,WNW,296,0.0,2.0,38,0.00,,,0.00,Wunderground v.1.15,2013-02-19 14:03:00,
2013-02-19 09:08:00,28.0,6.8,30.08,WNW,296,0.0,2.0,40,0.00,,,0.00,Wunderground v.1.15,2013-02-19 14:08:00,
2013-02-19 09:13:00,27.8,4.9,30.09,SW,226,1.0,3.0,37,0.00,,,0.00,Wunderground v.1.15,2013-02-19 14:13:00,
2013-02-19 09:18:00,27.5,5.7,30.09,SW,214,1.0,3.0,39,0.00,,,0.00,Wunderground v.1.15,2013-02-19 14:18:00,
2013-02-19 09:24:00,27.4,3.9,30.09,SSW,211,2.0,3.0,36,0.00,,,0.00,Wunderground v.1.15,2013-02-19 14:24:00,
2013-02-19 09:29:00,28.0,5.0,30.09,SSW,211,2.0,3.0,37,0.00,,,0.00,Wunderground v.1.15,2013-02-19 14:29:00,
2013-02-19 09:34:00,28.9,4.0,30.09,South,190,0.0,2.0,34,0.00,,,0.00,Wunderground v.1.15,2013-02-19 14:34:00,
2013-02-19 09:40:00,29.6,4.6,30.08,South,190,0.0,2.0,34,0.00,,,0.00,Wunderground v.1.15,2013-02-19 14:40:00,
2013-02-19 09:45:00,30.1,4.4,30.08,South,190,0.0,2.0,33,0.00,,,0.00,Wunderground v.1.15,2013-02-19 14:45:00,
2013-02-19 09:50:00,30.9,4.4,30.08,South,190,0.0,2.0,32,0.00,,,0.00,Wunderground v.1.15,2013-02-19 14:50:00,
2013-02-19 09:55:00,31.1,4.6,30.08,SW,234,0.0,2.0,32,0.00,,,0.00,Wunderground v.1.15,2013-02-19 14:55:00,
2013-02-19 10:01:00,30.7,4.3,30.08,WSW,240,1.0,2.0,32,0.00,,,0.00,Wunderground v.1.15,2013-02-19 15:01:00,
2013-02-19 10:06:00,30.5,4.8,30.08,SW,229,2.0,3.0,33,0.00,,,0.00,Wunderground v.1.15,2013-02-19 15:06:00,
2013-02-19 10:11:00,30.9,3.8,30.08,West,269,1.0,3.0,31,0.00,,,0.00,Wunderground v.1.15,2013-02-19 15:11:00,
2013-02-19 10:16:00,31.3,4.1,30.09,SW,229,1.0,3.0,31,0.00,,,0.00,Wunderground v.1.15,2013-02-19 15:16:00,
2013-02-19 10:22:00,32.1,4.8,30.08,South,189,1.0,2.0,31,0.00,,,0.00,Wunderground v.1.15,2013-02-19 15:22:00,
2013-02-19 10:28:00,33.1,6.4,30.09,SE,134,0.0,2.0,32,0.00,,,0.00,Wunderground v.1.15,2013-02-19 15:28:00,
2013-02-19 10:33:00,33.6,6.1,30.09,SSW,195,0.0,2.0,31,0.00,,,0.00,Wunderground v.1.15,2013-02-19 15:33:00,
2013-02-19 10:38:00,33.8,4.8,30.09,SSW,202,1.0,3.0,29,0.00,,,0.00,Wunderground v.1.15,2013-02-19 15:38:00,
2013-02-19 10:43:00,33.8,6.3,30.09,South,191,2.0,2.0,31,0.00,,,0.00,Wunderground v.1.15,2013-02-19 15:43:00,
2013-02-19 10:49:00,33.8,5.6,30.09,South,171,2.0,5.0,30,0.00,,,0.00,Wunderground v.1.15,2013-02-19 15:49:00,
2013-02-19 10:54:00,34.0,5.0,30.09,SSW,205,2.0,2.0,29,0.00,,,0.00,Wunderground v.1.15,2013-02-19 15:54:00,
2013-02-19 10:59:00,34.3,4.5,30.09,SSW,213,2.0,4.0,28,0.00,,,0.00,Wunderground v.1.15,2013-02-19 15:59:00,
2013-02-19 11:05:00,34.4,4.6,30.09,SW,232,3.0,6.0,28,0.00,,,0.00,Wunderground v.1.15,2013-02-19 16:05:00,
2013-02-19 11:10:00,34.7,5.6,30.09,SW,227,3.0,3.0,29,0.00,,,0.00,Wunderground v.1.15,2013-02-19 16:10:00,
2013-02-19 11:15:00,34.4,6.1,30.09,SW,219,2.0,5.0,30,0.00,,,0.00,Wunderground v.1.15,2013-02-19 16:15:00,
2013-02-19 11:21:00,34.1,6.6,30.08,SSW,198,3.0,3.0,31,0.00,,,0.00,Wunderground v.1.15,2013-02-19 16:21:00,
2013-02-19 11:26:00,34.1,8.0,30.08,SSW,212,2.0,4.0,33,0.00,,,0.00,Wunderground v.1.15,2013-02-19 16:26:00,
2013-02-19 11:31:00,34.0,9.2,30.07,SW,225,3.0,5.0,35,0.00,,,0.00,Wunderground v.1.15,2013-02-19 16:31:00,
2013-02-19 11:36:00,33.9,9.7,30.06,SSW,204,4.0,5.0,36,0.00,,,0.00,Wunderground v.1.15,2013-02-19 16:36:00,
2013-02-19 11:41:00,34.2,11.2,30.06,SSW,196,3.0,4.0,38,0.00,,,0.00,Wunderground v.1.15,2013-02-19 16:41:00,
2013-02-19 11:47:00,34.9,11.8,30.06,South,188,3.0,6.0,38,0.00,,,0.00,Wunderground v.1.15,2013-02-19 16:47:00,
2013-02-19 11:52:00,35.2,10.9,30.05,SSE,168,3.0,6.0,36,0.00,,,0.00,Wunderground v.1.15,2013-02-19 16:52:00,
2013-02-19 11:57:00,35.1,10.8,30.05,SSW,200,5.0,6.0,36,0.00,,,0.00,Wunderground v.1.15,2013-02-19 16:57:00,
2013-02-19 12:02:00,35.2,11.5,30.04,SSW,196,4.0,5.0,37,0.00,,,0.00,Wunderground v.1.15,2013-02-19 17:02:00,
2013-02-19 12:07:00,35.3,12.2,30.04,South,179,4.0,5.0,38,0.00,,,0.00,Wunderground v.1.15,2013-02-19 17:07:00,
2013-02-19 12:12:00,35.6,13.6,30.05,SW,232,4.0,5.0,40,0.00,,,0.00,Wunderground v.1.15,2013-02-19 17:12:00,
2013-02-19 12:18:00,36.2,14.2,30.04,South,186,3.0,5.0,40,0.00,,,0.00,Wunderground v.1.15,2013-02-19 17:18:00,
2013-02-19 12:23:00,36.3,13.1,30.04,SW,227,3.0,4.0,38,0.00,,,0.00,Wunderground v.1.15,2013-02-19 17:23:00,
2013-02-19 12:28:00,36.1,14.1,30.05,SW,218,4.0,6.0,40,0.00,,,0.00,Wunderground v.1.15,2013-02-19 17:28:00,
2013-02-19 12:34:00,36.4,16.0,30.05,SW,221,3.0,4.0,43,0.00,,,0.00,Wunderground v.1.15,2013-02-19 17:34:00,
2013-02-19 12:40:00,36.6,15.6,30.05,SW,225,3.0,7.0,42,0.00,,,0.00,Wunderground v.1.15,2013-02-19 17:40:00,
2013-02-19 12:45:00,36.0,15.1,30.05,SW,214,4.0,7.0,42,0.00,,,0.00,Wunderground v.1.15,2013-02-19 17:45:00,
2013-02-19 12:50:00,35.9,15.0,30.04,SW,226,4.0,4.0,42,0.00,,,0.00,Wunderground v.1.15,2013-02-19 17:50:00,
2013-02-19 12:55:00,36.0,15.6,30.03,SW,228,3.0,4.0,43,0.00,,,0.00,Wunderground v.1.15,2013-02-19 17:55:00,
2013-02-19 13:00:00,36.2,15.3,30.03,SSW,207,2.0,3.0,42,0.00,,,0.00,Wunderground v.1.15,2013-02-19 18:00:00,
2013-02-19 13:05:00,36.1,14.6,30.02,SW,218,2.0,4.0,41,0.00,,,0.00,Wunderground v.1.15,2013-02-19 18:05:00,
2013-02-19 13:11:00,36.5,16.1,30.02,South,189,1.0,2.0,43,0.00,,,0.00,Wunderground v.1.15,2013-02-19 18:11:00,
2013-02-19 13:16:00,37.0,13.7,30.01,SSE,155,1.0,6.0,38,0.00,,,0.00,Wunderground v.1.15,2013-02-19 18:16:00,
2013-02-19 13:21:00,36.9,13.0,30.01,ESE,112,4.0,5.0,37,0.00,,,0.00,Wunderground v.1.15,2013-02-19 18:21:00,
2013-02-19 13:26:00,36.8,13.5,30.00,SE,130,5.0,8.0,38,0.00,,,0.00,Wunderground v.1.15,2013-02-19 18:26:00,
2013-02-19 13:32:00,36.9,13.6,30.01,SE,143,6.0,8.0,38,0.00,,,0.00,Wunderground v.1.15,2013-02-19 18:32:00,
2013-02-19 13:37:00,37.0,14.3,30.01,South,171,6.0,10.0,39,0.00,,,0.00,Wunderground v.1.15,2013-02-19 18:37:00,
2013-02-19 13:42:00,37.0,13.7,30.01,South,174,6.0,9.0,38,0.00,,,0.00,Wunderground v.1.15,2013-02-19 18:42:00,
2013-02-19 13:47:00,37.0,15.5,30.01,SSE,153,6.0,9.0,41,0.00,,,0.00,Wunderground v.1.15,2013-02-19 18:47:00,
2013-02-19 13:53:00,37.1,17.7,30.01,SE,146,6.0,6.0,45,0.00,,,0.00,Wunderground v.1.15,2013-02-19 18:53:00,
2013-02-19 13:58:00,37.2,19.8,30.01,South,187,5.0,6.0,49,0.00,,,0.00,Wunderground v.1.15,2013-02-19 18:58:00,
2013-02-19 14:03:00,37.0,21.0,30.01,South,181,5.0,8.0,52,0.00,,,0.00,Wunderground v.1.15,2013-02-19 19:03:00,
2013-02-19 14:08:00,36.9,20.9,30.01,ESE,117,6.0,9.0,52,0.00,,,0.00,Wunderground v.1.15,2013-02-19 19:08:00,
2013-02-19 14:13:00,36.8,22.6,30.00,SSE,161,6.0,6.0,56,0.00,,,0.00,Wunderground v.1.15,2013-02-19 19:13:00,
2013-02-19 14:19:00,36.9,22.7,30.00,SE,129,5.0,8.0,56,0.00,,,0.00,Wunderground v.1.15,2013-02-19 19:19:00,
2013-02-19 14:24:00,36.9,23.1,30.00,SSE,167,5.0,10.0,57,0.00,,,0.00,Wunderground v.1.15,2013-02-19 19:24:00,
2013-02-19 14:29:00,36.8,23.4,29.99,SE,146,6.0,10.0,58,0.00,,,0.00,Wunderground v.1.15,2013-02-19 19:29:00,
2013-02-19 14:34:00,36.8,23.8,29.99,SE,129,6.0,7.0,59,0.00,,,0.00,Wunderground v.1.15,2013-02-19 19:34:00,
2013-02-19 14:39:00,36.8,23.4,29.99,SSE,155,6.0,9.0,58,0.00,,,0.00,Wunderground v.1.15,2013-02-19 19:39:00,
2013-02-19 14:44:00,36.8,23.8,29.99,South,180,7.0,9.0,59,0.00,,,0.00,Wunderground v.1.15,2013-02-19 19:44:00,
2013-02-19 14:50:00,36.8,24.2,29.98,SE,134,7.0,7.0,60,0.00,,,0.00,Wunderground v.1.15,2013-02-19 19:50:00,
2013-02-19 14:55:00,36.8,23.8,29.98,SSE,148,7.0,8.0,59,0.00,,,0.00,Wunderground v.1.15,2013-02-19 19:55:00,
2013-02-19 15:00:00,36.8,25.0,29.98,ESE,117,7.0,8.0,62,0.00,,,0.00,Wunderground v.1.15,2013-02-19 20:00:00,
2013-02-19 15:06:00,36.8,25.0,29.98,SE,134,6.0,8.0,62,0.00,,,0.00,Wunderground v.1.15,2013-02-19 20:06:00,
2013-02-19 15:11:00,36.9,25.1,29.98,SE,129,5.0,5.0,62,0.00,,,0.00,Wunderground v.1.15,2013-02-19 20:11:00,
2013-02-19 15:16:00,37.0,25.6,29.97,SE,138,4.0,5.0,63,0.00,,,0.00,Wunderground v.1.15,2013-02-19 20:16:00,
2013-02-19 15:22:00,37.0,25.9,29.97,SE,136,3.0,5.0,64,0.00,,,0.00,Wunderground v.1.15,2013-02-19 20:22:00,
2013-02-19 15:28:00,37.0,26.3,29.97,South,187,5.0,7.0,65,0.00,,,0.00,Wunderground v.1.15,2013-02-19 20:28:00,
2013-02-19 15:33:00,37.0,26.7,29.97,ESE,105,5.0,9.0,66,0.00,,,0.00,Wunderground v.1.15,2013-02-19 20:33:00,
2013-02-19 15:38:00,36.9,27.0,29.96,SSE,157,4.0,9.0,67,0.00,,,0.00,Wunderground v.1.15,2013-02-19 20:38:00,
2013-02-19 15:43:00,36.9,27.0,29.96,SSE,161,4.0,5.0,67,0.00,,,0.00,Wunderground v.1.15,2013-02-19 20:43:00,
2013-02-19 15:49:00,36.9,27.0,29.96,South,173,3.0,5.0,67,0.00,,,0.00,Wunderground v.1.15,2013-02-19 20:49:00,
2013-02-19 15:54:00,36.9,27.3,29.95,SE,127,3.0,4.0,68,0.00,,,0.00,Wunderground v.1.15,2013-02-19 20:54:00,
2013-02-19 15:59:00,37.0,27.4,29.95,SSE,157,3.0,4.0,68,0.00,,,0.00,Wunderground v.1.15,2013-02-19 20:59:00,
2013-02-19 16:04:00,37.0,27.8,29.95,SE,134,2.0,5.0,69,0.00,,,0.00,Wunderground v.1.15,2013-02-19 21:04:00,
2013-02-19 16:10:00,37.0,27.8,29.94,East,87,2.0,2.0,69,0.00,,,0.00,Wunderground v.1.15,2013-02-19 21:10:00,
2013-02-19 16:15:00,37.0,28.1,29.93,ESE,120,3.0,5.0,70,0.00,,,0.00,Wunderground v.1.15,2013-02-19 21:15:00,
2013-02-19 16:20:00,37.0,28.1,29.93,ESE,104,3.0,3.0,70,0.00,,,0.00,Wunderground v.1.15,2013-02-19 21:20:00,
2013-02-19 16:25:00,36.9,28.0,29.93,ESE,120,2.0,3.0,70,0.00,,,0.00,Wunderground v.1.15,2013-02-19 21:25:00,
2013-02-19 16:30:00,36.9,28.0,29.93,East,100,1.0,1.0,70,0.00,,,0.00,Wunderground v.1.15,2013-02-19 21:30:00,
2013-02-19 16:35:00,36.9,28.4,29.92,ESE,115,1.0,3.0,71,0.00,,,0.00,Wunderground v.1.15,2013-02-19 21:35:00,
2013-02-19 16:40:00,36.8,28.6,29.91,ENE,61,2.0,3.0,72,0.00,,,0.00,Wunderground v.1.15,2013-02-19 21:40:00,
2013-02-19 16:45:00,36.7,28.9,29.91,East,88,2.0,3.0,73,0.00,,,0.00,Wunderground v.1.15,2013-02-19 21:45:00,
2013-02-19 16:50:00,36.7,29.2,29.91,ESE,123,2.0,2.0,74,0.00,,,0.00,Wunderground v.1.15,2013-02-19 21:50:00,
2013-02-19 16:56:00,36.7,29.5,29.91,SE,134,1.0,3.0,75,0.00,,,0.00,Wunderground v.1.15,2013-02-19 21:56:00,
2013-02-19 17:01:00,36.8,29.9,29.91,ESE,111,1.0,2.0,76,0.00,,,0.00,Wunderground v.1.15,2013-02-19 22:01:00,
2013-02-19 17:06:00,36.7,30.2,29.90,ESE,107,1.0,3.0,77,0.00,,,0.00,Wunderground v.1.15,2013-02-19 22:06:00,
2013-02-19 17:11:00,36.8,30.6,29.90,SE,126,2.0,2.0,78,0.00,,,0.00,Wunderground v.1.15,2013-02-19 22:11:00,
2013-02-19 17:16:00,36.9,31.0,29.90,ESE,105,2.0,3.0,79,0.00,,,0.00,Wunderground v.1.15,2013-02-19 22:16:00,
2013-02-19 17:21:00,37.0,31.1,29.90,ESE,120,2.0,2.0,79,0.00,,,0.00,Wunderground v.1.15,2013-02-19 22:21:00,
2013-02-19 17:26:00,37.1,31.5,29.89,SE,137,1.0,3.0,80,0.00,,,0.00,Wunderground v.1.15,2013-02-19 22:26:00,
2013-02-19 17:32:00,37.2,32.2,29.89,SSE,148,1.0,3.0,82,0.00,,,0.00,Wunderground v.1.15,2013-02-19 22:32:00,
2013-02-19 17:37:00,37.4,32.4,29.88,SSE,155,2.0,4.0,82,0.00,,,0.00,Wunderground v.1.15,2013-02-19 22:37:00,
2013-02-19 17:42:00,37.6,33.2,29.88,SE,134,2.0,2.0,84,0.00,,,0.00,Wunderground v.1.15,2013-02-19 22:42:00,
2013-02-19 17:47:00,37.9,33.8,29.88,SSE,148,2.0,5.0,85,0.00,,,0.00,Wunderground v.1.15,2013-02-19 22:47:00,
2013-02-19 17:53:00,38.3,34.5,29.88,SE,132,3.0,3.0,86,0.00,,,0.00,Wunderground v.1.15,2013-02-19 22:53:00,
2013-02-19 17:58:00,38.5,35.0,29.88,SSE,163,3.0,6.0,87,0.00,,,0.00,Wunderground v.1.15,2013-02-19 22:58:00,
2013-02-19 18:04:00,38.9,35.4,29.88,SE,145,4.0,6.0,87,0.00,,,0.00,Wunderground v.1.15,2013-02-19 23:04:00,
2013-02-19 18:09:00,39.1,35.8,29.87,SSE,161,4.0,6.0,88,0.00,,,0.00,Wunderground v.1.15,2013-02-19 23:09:00,
2013-02-19 18:14:00,39.4,36.4,29.86,South,178,4.0,5.0,89,0.00,,,0.00,Wunderground v.1.15,2013-02-19 23:14:00,
2013-02-19 18:19:00,39.7,37.0,29.86,East,101,6.0,10.0,90,0.00,,,0.00,Wunderground v.1.15,2013-02-19 23:19:00,
2013-02-19 18:24:00,39.8,37.4,29.85,SE,144,7.0,10.0,91,0.00,,,0.00,Wunderground v.1.15,2013-02-19 23:24:00,
2013-02-19 18:30:00,39.9,37.5,29.85,SSE,158,7.0,7.0,91,0.00,,,0.00,Wunderground v.1.15,2013-02-19 23:30:00,
2013-02-19 18:35:00,39.9,37.8,29.85,SSE,155,7.0,7.0,92,0.00,,,0.00,Wunderground v.1.15,2013-02-19 23:35:00,
2013-02-19 18:40:00,39.9,37.8,29.85,SSE,147,6.0,6.0,92,0.00,,,0.01,Wunderground v.1.15,2013-02-19 23:40:00,
2013-02-19 18:45:00,39.9,38.0,29.84,SE,145,6.0,11.0,93,0.00,,,0.01,Wunderground v.1.15,2013-02-19 23:45:00,
2013-02-19 18:50:00,40.0,38.1,29.83,SE,126,7.0,10.0,93,0.00,,,0.01,Wunderground v.1.15,2013-02-19 23:50:00,
2013-02-19 18:56:00,39.9,38.3,29.83,SE,138,6.0,10.0,94,0.00,,,0.01,Wunderground v.1.15,2013-02-19 23:56:00,
2013-02-19 19:01:00,39.9,38.3,29.82,SSE,155,5.0,6.0,94,0.00,,,0.01,Wunderground v.1.15,2013-02-20 00:01:00,
2013-02-19 19:06:00,39.9,38.6,29.82,SE,128,5.0,6.0,95,0.00,,,0.01,Wunderground v.1.15,2013-02-20 00:06:00,
2013-02-19 19:11:00,40.1,38.8,29.82,SSE,160,6.0,6.0,95,0.00,,,0.01,Wunderground v.1.15,2013-02-20 00:11:00,
2013-02-19 19:17:00,40.3,39.0,29.81,ESE,102,6.0,9.0,95,0.00,,,0.01,Wunderground v.1.15,2013-02-20 00:17:00,
2013-02-19 19:22:00,40.4,39.1,29.81,SSE,155,7.0,9.0,95,0.00,,,0.01,Wunderground v.1.15,2013-02-20 00:22:00,
2013-02-19 19:27:00,40.6,39.5,29.80,ESE,119,7.0,11.0,96,0.00,,,0.01,Wunderground v.1.15,2013-02-20 00:27:00,
2013-02-19 19:32:00,40.5,39.2,29.80,SE,144,7.0,7.0,95,0.00,,,0.01,Wunderground v.1.15,2013-02-20 00:32:00,
2013-02-19 19:38:00,40.5,39.4,29.80,SSE,149,6.0,11.0,96,0.00,,,0.01,Wunderground v.1.15,2013-02-20 00:38:00,
2013-02-19 19:43:00,40.7,39.6,29.79,SSE,153,6.0,7.0,96,0.00,,,0.01,Wunderground v.1.15,2013-02-20 00:43:00,
2013-02-19 19:48:00,40.8,39.7,29.79,SE,140,7.0,8.0,96,0.00,,,0.02,Wunderground v.1.15,2013-02-20 00:48:00,
2013-02-19 19:53:00,40.8,39.7,29.79,South,182,6.0,9.0,96,0.00,,,0.02,Wunderground v.1.15,2013-02-20 00:53:00,
2013-02-19 19:58:00,40.9,39.8,29.79,SSE,157,6.0,10.0,96,0.00,,,0.02,Wunderground v.1.15,2013-02-20 00:58:00,
2013-02-19 20:04:00,41.0,40.2,29.78,ESE,123,6.0,8.0,97,0.00,,,0.02,Wunderground v.1.15,2013-02-20 01:04:00,
2013-02-19 20:09:00,41.0,39.9,29.78,SE,124,6.0,8.0,96,0.00,,,0.02,Wunderground v.1.15,2013-02-20 01:09:00,
2013-02-19 20:15:00,41.0,40.2,29.77,ESE,123,5.0,8.0,97,0.00,,,0.02,Wunderground v.1.15,2013-02-20 01:15:00,
2013-02-19 20:20:00,41.0,40.2,29.77,SE,132,4.0,6.0,97,0.00,,,0.03,Wunderground v.1.15,2013-02-20 01:20:00,
2013-02-19 20:25:00,41.0,40.2,29.77,SE,125,5.0,6.0,97,0.00,,,0.03,Wunderground v.1.15,2013-02-20 01:25:00,
2013-02-19 20:30:00,40.9,40.1,29.76,SE,132,4.0,4.0,97,0.00,,,0.03,Wunderground v.1.15,2013-02-20 01:30:00,
2013-02-19 20:35:00,40.9,40.1,29.76,SSE,167,3.0,6.0,97,0.00,,,0.03,Wunderground v.1.15,2013-02-20 01:35:00,
2013-02-19 20:41:00,41.0,40.5,29.76,ESE,121,3.0,5.0,98,0.00,,,0.04,Wunderground v.1.15,2013-02-20 01:41:00,
2013-02-19 20:46:00,41.1,40.6,29.75,ESE,114,3.0,5.0,98,0.00,,,0.04,Wunderground v.1.15,2013-02-20 01:46:00,
2013-02-19 20:51:00,41.1,40.6,29.75,South,175,3.0,6.0,98,0.05,,,0.05,Wunderground v.1.15,2013-02-20 01:51:00,
2013-02-19 20:56:00,41.2,40.7,29.75,SSW,198,3.0,7.0,98,0.07,,,0.06,Wunderground v.1.15,2013-02-20 01:56:00,
2013-02-19 21:01:00,41.3,40.8,29.75,South,185,3.0,3.0,98,0.07,,,0.06,Wunderground v.1.15,2013-02-20 02:01:00,
2013-02-19 21:06:00,41.3,40.8,29.75,SSW,206,2.0,3.0,98,0.10,,,0.07,Wunderground v.1.15,2013-02-20 02:06:00,
2013-02-19 21:11:00,41.4,40.9,29.74,South,169,2.0,4.0,98,0.09,,,0.08,Wunderground v.1.15,2013-02-20 02:11:00,
2013-02-19 21:16:00,41.5,41.0,29.74,South,176,4.0,7.0,98,0.14,,,0.09,Wunderground v.1.15,2013-02-20 02:16:00,
2013-02-19 21:21:00,41.6,41.1,29.74,SSE,165,4.0,5.0,98,0.22,,,0.11,Wunderground v.1.15,2013-02-20 02:21:00,
2013-02-19 21:27:00,41.6,41.1,29.73,ESE,123,4.0,7.0,98,0.17,,,0.14,Wunderground v.1.15,2013-02-20 02:27:00,
2013-02-19 21:32:00,41.4,40.9,29.72,ESE,122,4.0,5.0,98,0.16,,,0.15,Wunderground v.1.15,2013-02-20 02:32:00,
2013-02-19 21:38:00,41.3,40.8,29.72,SE,142,3.0,6.0,98,0.11,,,0.16,Wunderground v.1.15,2013-02-20 02:38:00,
2013-02-19 21:43:00,41.4,40.9,29.71,SE,143,3.0,7.0,98,0.16,,,0.17,Wunderground v.1.15,2013-02-20 02:43:00,
2013-02-19 21:49:00,41.4,40.9,29.70,SE,133,4.0,7.0,98,0.12,,,0.18,Wunderground v.1.15,2013-02-20 02:49:00,
2013-02-19 21:54:00,41.5,41.2,29.69,SE,138,4.0,11.0,99,0.12,,,0.19,Wunderground v.1.15,2013-02-20 02:54:00,
2013-02-19 21:59:00,41.6,41.3,29.68,ESE,113,5.0,11.0,99,0.11,,,0.20,Wunderground v.1.15,2013-02-20 02:59:00,
2013-02-19 22:05:00,41.8,41.5,29.67,ESE,119,6.0,9.0,99,0.17,,,0.22,Wunderground v.1.15,2013-02-20 03:05:00,
2013-02-19 22:11:00,41.9,41.6,29.66,SE,126,7.0,13.0,99,0.13,,,0.23,Wunderground v.1.15,2013-02-20 03:11:00,
2013-02-19 22:17:00,42.2,41.9,29.65,SSE,156,7.0,13.0,99,0.09,,,0.24,Wunderground v.1.15,2013-02-20 03:17:00,